메인 페이지
METAR-TAF:

METAR-TAF

공항 :

요한 바오로 2세 공항

Ponta Delgada, 아조레스, 포르투갈

위도: 37-44N, 경도: 025-42W, 고도: 71m

현재 날씨관측

예보는 36분 전, 18:00시(UTC)에 발표되었습니다.
서남서7kt
온도 13°C
습도 88%
기압 1000 hPa
시정 10km 이상
고도 1200ft 상공 구름 조금
약한이슬비

METAR: LPPD 201800Z 25007KT 9999 -DZ FEW012 13/11 Q1000

시각: 17:36 (18:36 UTC)

예보

예보는 1 시간 36분 전, 17:00시(UTC)에 발표되었습니다.
예보 대상 시간: 20일 18시부터 21일 18시까지 (UTC)
12kt
시정 10km 이상
고도 1500ft 상공 구름 조금
고도 4000ft 상공 구름 많음
일시적
20일 18시부터 21일 18시까지 (UTC)
시정: 5000m
고도 800ft 상공 구름 보통
고도 1500ft 상공 구름 많음
고도 1800ft 상공 구름 조금, 적란운.
소나기
전환 중
21일 02시부터 21일 05시까지 (UTC)
남서20kt, 순간 최대 풍속 30kt
일시적
21일 05시부터 21일 18시까지 (UTC)
남서28kt, 순간 최대 풍속 38kt

TAF: LPPD 201700Z 2018/2118 26012KT 9999 FEW015 BKN040 TEMPO 2018/2118 5000 SHRA SCT008 BKN015 FEW018CB BECMG 2102/2105 22020G30KT TEMPO 2105/2118 22028G38KT

4,000개 이상의 공항 관측 자료 및 예보 (METAR 및 TAF 보고).

지도상에서 검색 가능한 기상관측소가 노란 점과 빨간 점으로 표시되어 있습니다.

기상관측소 명을 보려면 표시 위로 마우스를 이동하세요.

날씨 관측과 예보를 보려면 클릭하세요.

지도 변경 : 확대하려면 엑스 표시가 있는 녹색 버튼, 축소하려면 빼기 표시가 있는 녹색 버튼, 다음 페이지의 지도를 보려면 녹색 화살표를 클릭하세요.


METAR-TAF: